sensor_id;sensor_type;location;lat;lon;timestamp;P1;durP1;ratioP1;P2;durP2;ratioP2
15818;SDS011;8010;53.986;12.106;2023-04-24T00:02:07;2.90;;;2.60;;
15818;SDS011;8010;53.986;12.106;2023-04-24T00:04:35;3.80;;;3.00;;
15818;SDS011;8010;53.986;12.106;2023-04-24T00:07:05;4.10;;;3.30;;
15818;SDS011;8010;53.986;12.106;2023-04-24T00:09:31;3.97;;;2.80;;
15818;SDS011;8010;53.986;12.106;2023-04-24T00:11:57;3.17;;;2.60;;
15818;SDS011;8010;53.986;12.106;2023-04-24T00:14:23;3.70;;;2.90;;
15818;SDS011;8010;53.986;12.106;2023-04-24T00:16:49;3.53;;;3.07;;
15818;SDS011;8010;53.986;12.106;2023-04-24T00:19:14;3.43;;;2.60;;
15818;SDS011;8010;53.986;12.106;2023-04-24T00:21:40;3.30;;;2.80;;
15818;SDS011;8010;53.986;12.106;2023-04-24T00:24:06;3.87;;;3.00;;
15818;SDS011;8010;53.986;12.106;2023-04-24T00:26:34;3.30;;;2.77;;
15818;SDS011;8010;53.986;12.106;2023-04-24T00:28:59;3.50;;;2.57;;
15818;SDS011;8010;53.986;12.106;2023-04-24T00:31:25;2.70;;;2.50;;
15818;SDS011;8010;53.986;12.106;2023-04-24T00:33:50;2.97;;;2.40;;
15818;SDS011;8010;53.986;12.106;2023-04-24T00:36:16;3.03;;;2.63;;
15818;SDS011;8010;53.986;12.106;2023-04-24T00:38:44;2.90;;;2.37;;
15818;SDS011;8010;53.986;12.106;2023-04-24T00:41:09;2.87;;;2.30;;
15818;SDS011;8010;53.986;12.106;2023-04-24T00:43:35;4.47;;;2.73;;
15818;SDS011;8010;53.986;12.106;2023-04-24T00:46:01;3.00;;;2.70;;
15818;SDS011;8010;53.986;12.106;2023-04-24T00:48:26;3.83;;;2.70;;
15818;SDS011;8010;53.986;12.106;2023-04-24T00:50:52;3.87;;;3.00;;
15818;SDS011;8010;53.986;12.106;2023-04-24T00:53:18;2.93;;;2.60;;
15818;SDS011;8010;53.986;12.106;2023-04-24T00:55:44;3.70;;;3.10;;
15818;SDS011;8010;53.986;12.106;2023-04-24T00:58:10;2.60;;;2.40;;
15818;SDS011;8010;53.986;12.106;2023-04-24T01:00:36;2.90;;;2.60;;
15818;SDS011;8010;53.986;12.106;2023-04-24T01:03:02;3.30;;;2.73;;
15818;SDS011;8010;53.986;12.106;2023-04-24T01:05:29;3.67;;;2.37;;
15818;SDS011;8010;53.986;12.106;2023-04-24T01:07:55;3.43;;;2.63;;
15818;SDS011;8010;53.986;12.106;2023-04-24T01:10:21;3.60;;;2.87;;
15818;SDS011;8010;53.986;12.106;2023-04-24T01:12:49;3.43;;;2.93;;
15818;SDS011;8010;53.986;12.106;2023-04-24T01:15:15;2.90;;;2.60;;
15818;SDS011;8010;53.986;12.106;2023-04-24T01:17:41;5.03;;;3.20;;
15818;SDS011;8010;53.986;12.106;2023-04-24T01:20:06;4.60;;;3.20;;
15818;SDS011;8010;53.986;12.106;2023-04-24T01:22:33;3.53;;;3.13;;
15818;SDS011;8010;53.986;12.106;2023-04-24T01:24:59;4.57;;;3.30;;
15818;SDS011;8010;53.986;12.106;2023-04-24T01:27:25;4.20;;;2.83;;
15818;SDS011;8010;53.986;12.106;2023-04-24T01:29:50;3.33;;;3.03;;
15818;SDS011;8010;53.986;12.106;2023-04-24T01:32:17;3.30;;;2.87;;
15818;SDS011;8010;53.986;12.106;2023-04-24T01:34:43;5.13;;;3.33;;
15818;SDS011;8010;53.986;12.106;2023-04-24T01:37:09;4.77;;;3.10;;
15818;SDS011;8010;53.986;12.106;2023-04-24T01:39:35;5.27;;;2.90;;
15818;SDS011;8010;53.986;12.106;2023-04-24T01:42:01;3.47;;;2.93;;
15818;SDS011;8010;53.986;12.106;2023-04-24T01:44:27;4.27;;;3.20;;
15818;SDS011;8010;53.986;12.106;2023-04-24T01:46:53;4.47;;;3.10;;
15818;SDS011;8010;53.986;12.106;2023-04-24T01:49:20;3.57;;;2.73;;
15818;SDS011;8010;53.986;12.106;2023-04-24T01:51:45;3.30;;;2.83;;
15818;SDS011;8010;53.986;12.106;2023-04-24T01:54:11;4.27;;;3.23;;
15818;SDS011;8010;53.986;12.106;2023-04-24T01:56:37;4.20;;;3.43;;
15818;SDS011;8010;53.986;12.106;2023-04-24T01:59:07;3.43;;;2.90;;
15818;SDS011;8010;53.986;12.106;2023-04-24T02:01:34;4.60;;;3.13;;
15818;SDS011;8010;53.986;12.106;2023-04-24T02:04:06;3.47;;;2.97;;
15818;SDS011;8010;53.986;12.106;2023-04-24T02:06:32;5.53;;;2.90;;
15818;SDS011;8010;53.986;12.106;2023-04-24T02:08:58;3.87;;;3.00;;
15818;SDS011;8010;53.986;12.106;2023-04-24T02:11:24;3.97;;;3.10;;
15818;SDS011;8010;53.986;12.106;2023-04-24T02:13:50;3.93;;;3.07;;
15818;SDS011;8010;53.986;12.106;2023-04-24T02:16:16;3.97;;;3.57;;
15818;SDS011;8010;53.986;12.106;2023-04-24T02:18:42;6.00;;;3.20;;
15818;SDS011;8010;53.986;12.106;2023-04-24T02:21:08;4.63;;;3.07;;
15818;SDS011;8010;53.986;12.106;2023-04-24T02:23:34;4.87;;;2.90;;
15818;SDS011;8010;53.986;12.106;2023-04-24T02:25:59;4.30;;;3.17;;
15818;SDS011;8010;53.986;12.106;2023-04-24T02:28:25;5.63;;;3.37;;
15818;SDS011;8010;53.986;12.106;2023-04-24T02:30:50;3.87;;;3.47;;
15818;SDS011;8010;53.986;12.106;2023-04-24T02:33:16;3.60;;;3.00;;
15818;SDS011;8010;53.986;12.106;2023-04-24T02:35:41;6.20;;;3.40;;
15818;SDS011;8010;53.986;12.106;2023-04-24T02:38:07;4.40;;;3.70;;
15818;SDS011;8010;53.986;12.106;2023-04-24T02:40:33;5.10;;;3.40;;
15818;SDS011;8010;53.986;12.106;2023-04-24T02:42:58;3.83;;;3.23;;
15818;SDS011;8010;53.986;12.106;2023-04-24T02:45:24;4.93;;;3.90;;
15818;SDS011;8010;53.986;12.106;2023-04-24T02:47:49;4.70;;;3.50;;
15818;SDS011;8010;53.986;12.106;2023-04-24T02:50:15;4.83;;;3.63;;
15818;SDS011;8010;53.986;12.106;2023-04-24T02:52:40;5.07;;;3.50;;
15818;SDS011;8010;53.986;12.106;2023-04-24T02:55:06;4.07;;;3.67;;
15818;SDS011;8010;53.986;12.106;2023-04-24T02:57:33;4.63;;;3.30;;
15818;SDS011;8010;53.986;12.106;2023-04-24T02:59:58;6.70;;;3.63;;
15818;SDS011;8010;53.986;12.106;2023-04-24T03:02:24;4.53;;;3.37;;
15818;SDS011;8010;53.986;12.106;2023-04-24T03:04:50;5.40;;;3.70;;
15818;SDS011;8010;53.986;12.106;2023-04-24T03:07:15;4.77;;;3.77;;
15818;SDS011;8010;53.986;12.106;2023-04-24T03:09:41;4.17;;;3.33;;
15818;SDS011;8010;53.986;12.106;2023-04-24T03:12:06;5.03;;;3.33;;
15818;SDS011;8010;53.986;12.106;2023-04-24T03:14:32;5.10;;;3.87;;
15818;SDS011;8010;53.986;12.106;2023-04-24T03:16:58;6.23;;;3.67;;
15818;SDS011;8010;53.986;12.106;2023-04-24T03:19:23;4.90;;;3.40;;
15818;SDS011;8010;53.986;12.106;2023-04-24T03:21:49;5.17;;;3.63;;
15818;SDS011;8010;53.986;12.106;2023-04-24T03:24:15;4.53;;;3.37;;
15818;SDS011;8010;53.986;12.106;2023-04-24T03:26:40;4.70;;;3.40;;
15818;SDS011;8010;53.986;12.106;2023-04-24T03:29:06;4.53;;;3.10;;
15818;SDS011;8010;53.986;12.106;2023-04-24T03:31:32;3.67;;;2.83;;
15818;SDS011;8010;53.986;12.106;2023-04-24T03:33:57;4.37;;;3.43;;
15818;SDS011;8010;53.986;12.106;2023-04-24T03:36:23;4.53;;;3.53;;
15818;SDS011;8010;53.986;12.106;2023-04-24T03:38:48;5.23;;;3.53;;
15818;SDS011;8010;53.986;12.106;2023-04-24T03:41:14;5.57;;;3.23;;
15818;SDS011;8010;53.986;12.106;2023-04-24T03:43:39;5.37;;;3.27;;
15818;SDS011;8010;53.986;12.106;2023-04-24T03:46:05;4.30;;;3.60;;
15818;SDS011;8010;53.986;12.106;2023-04-24T03:48:31;5.40;;;3.53;;
15818;SDS011;8010;53.986;12.106;2023-04-24T03:50:57;4.97;;;3.73;;
15818;SDS011;8010;53.986;12.106;2023-04-24T03:53:23;3.43;;;3.13;;
15818;SDS011;8010;53.986;12.106;2023-04-24T03:55:48;5.70;;;3.77;;
15818;SDS011;8010;53.986;12.106;2023-04-24T03:58:14;4.73;;;3.43;;
15818;SDS011;8010;53.986;12.106;2023-04-24T04:00:39;4.20;;;3.37;;
15818;SDS011;8010;53.986;12.106;2023-04-24T04:03:05;4.27;;;3.30;;
15818;SDS011;8010;53.986;12.106;2023-04-24T04:05:31;5.37;;;3.70;;
15818;SDS011;8010;53.986;12.106;2023-04-24T04:07:56;5.37;;;3.57;;
15818;SDS011;8010;53.986;12.106;2023-04-24T04:10:22;5.03;;;3.87;;
15818;SDS011;8010;53.986;12.106;2023-04-24T04:12:48;4.17;;;3.17;;
15818;SDS011;8010;53.986;12.106;2023-04-24T04:15:13;4.83;;;3.83;;
15818;SDS011;8010;53.986;12.106;2023-04-24T04:17:39;4.77;;;3.50;;
15818;SDS011;8010;53.986;12.106;2023-04-24T04:20:05;5.07;;;3.30;;
15818;SDS011;8010;53.986;12.106;2023-04-24T04:22:34;4.83;;;3.43;;
15818;SDS011;8010;53.986;12.106;2023-04-24T04:25:00;6.37;;;3.83;;
15818;SDS011;8010;53.986;12.106;2023-04-24T04:27:25;5.33;;;3.83;;
15818;SDS011;8010;53.986;12.106;2023-04-24T04:29:51;5.30;;;3.30;;
15818;SDS011;8010;53.986;12.106;2023-04-24T04:32:17;5.40;;;3.37;;
15818;SDS011;8010;53.986;12.106;2023-04-24T04:34:43;5.97;;;3.67;;
15818;SDS011;8010;53.986;12.106;2023-04-24T04:37:10;5.57;;;3.93;;
15818;SDS011;8010;53.986;12.106;2023-04-24T04:39:37;3.93;;;3.53;;
15818;SDS011;8010;53.986;12.106;2023-04-24T04:42:03;6.60;;;3.60;;
15818;SDS011;8010;53.986;12.106;2023-04-24T04:44:29;4.70;;;3.70;;
15818;SDS011;8010;53.986;12.106;2023-04-24T04:46:55;4.07;;;3.60;;
15818;SDS011;8010;53.986;12.106;2023-04-24T04:49:21;5.10;;;3.93;;
15818;SDS011;8010;53.986;12.106;2023-04-24T04:51:48;4.40;;;3.63;;
15818;SDS011;8010;53.986;12.106;2023-04-24T04:54:15;4.40;;;3.63;;
15818;SDS011;8010;53.986;12.106;2023-04-24T04:56:41;4.10;;;3.60;;
15818;SDS011;8010;53.986;12.106;2023-04-24T04:59:06;4.63;;;3.50;;
15818;SDS011;8010;53.986;12.106;2023-04-24T05:01:32;4.63;;;3.87;;
15818;SDS011;8010;53.986;12.106;2023-04-24T05:03:57;4.03;;;3.63;;
15818;SDS011;8010;53.986;12.106;2023-04-24T05:06:23;4.43;;;3.77;;
15818;SDS011;8010;53.986;12.106;2023-04-24T05:08:49;4.40;;;3.70;;
15818;SDS011;8010;53.986;12.106;2023-04-24T05:11:16;4.13;;;3.50;;
15818;SDS011;8010;53.986;12.106;2023-04-24T05:13:41;6.13;;;3.53;;
15818;SDS011;8010;53.986;12.106;2023-04-24T05:16:07;5.13;;;3.97;;
15818;SDS011;8010;53.986;12.106;2023-04-24T05:18:32;4.70;;;3.83;;
15818;SDS011;8010;53.986;12.106;2023-04-24T05:20:58;6.43;;;4.10;;
15818;SDS011;8010;53.986;12.106;2023-04-24T05:23:23;4.80;;;3.80;;
15818;SDS011;8010;53.986;12.106;2023-04-24T05:25:49;4.10;;;3.67;;
15818;SDS011;8010;53.986;12.106;2023-04-24T05:28:14;4.37;;;3.90;;
15818;SDS011;8010;53.986;12.106;2023-04-24T05:30:40;4.33;;;3.60;;
15818;SDS011;8010;53.986;12.106;2023-04-24T05:33:06;4.63;;;3.93;;
15818;SDS011;8010;53.986;12.106;2023-04-24T05:35:31;5.47;;;3.40;;
15818;SDS011;8010;53.986;12.106;2023-04-24T05:37:57;4.07;;;3.67;;
15818;SDS011;8010;53.986;12.106;2023-04-24T05:40:22;3.93;;;3.53;;
15818;SDS011;8010;53.986;12.106;2023-04-24T05:42:48;4.17;;;3.60;;
15818;SDS011;8010;53.986;12.106;2023-04-24T05:45:13;4.43;;;3.60;;
15818;SDS011;8010;53.986;12.106;2023-04-24T05:47:41;4.20;;;3.80;;
15818;SDS011;8010;53.986;12.106;2023-04-24T05:50:10;4.33;;;3.80;;
15818;SDS011;8010;53.986;12.106;2023-04-24T05:52:36;5.27;;;4.23;;
15818;SDS011;8010;53.986;12.106;2023-04-24T05:55:01;4.27;;;3.67;;
15818;SDS011;8010;53.986;12.106;2023-04-24T05:57:27;4.60;;;3.63;;
15818;SDS011;8010;53.986;12.106;2023-04-24T05:59:53;4.23;;;3.67;;
15818;SDS011;8010;53.986;12.106;2023-04-24T06:02:18;4.10;;;3.30;;
15818;SDS011;8010;53.986;12.106;2023-04-24T06:04:44;3.70;;;3.20;;
15818;SDS011;8010;53.986;12.106;2023-04-24T06:07:13;4.70;;;3.23;;
15818;SDS011;8010;53.986;12.106;2023-04-24T06:09:38;4.27;;;3.17;;
15818;SDS011;8010;53.986;12.106;2023-04-24T06:12:04;3.00;;;2.70;;
15818;SDS011;8010;53.986;12.106;2023-04-24T06:14:29;3.30;;;2.63;;
15818;SDS011;8010;53.986;12.106;2023-04-24T06:16:55;2.60;;;2.27;;
15818;SDS011;8010;53.986;12.106;2023-04-24T06:19:20;2.43;;;2.20;;
15818;SDS011;8010;53.986;12.106;2023-04-24T06:21:46;2.67;;;2.00;;
15818;SDS011;8010;53.986;12.106;2023-04-24T06:24:13;4.30;;;2.40;;
15818;SDS011;8010;53.986;12.106;2023-04-24T06:26:39;2.47;;;2.23;;
15818;SDS011;8010;53.986;12.106;2023-04-24T06:29:05;2.13;;;1.93;;
15818;SDS011;8010;53.986;12.106;2023-04-24T06:31:32;2.13;;;1.93;;
15818;SDS011;8010;53.986;12.106;2023-04-24T06:34:01;2.40;;;2.10;;
15818;SDS011;8010;53.986;12.106;2023-04-24T06:36:27;3.63;;;2.23;;
15818;SDS011;8010;53.986;12.106;2023-04-24T06:38:53;2.43;;;1.60;;
15818;SDS011;8010;53.986;12.106;2023-04-24T06:41:19;2.23;;;1.60;;
15818;SDS011;8010;53.986;12.106;2023-04-24T06:43:45;2.53;;;1.97;;
15818;SDS011;8010;53.986;12.106;2023-04-24T06:46:10;1.93;;;1.70;;
15818;SDS011;8010;53.986;12.106;2023-04-24T06:48:36;1.77;;;1.30;;
15818;SDS011;8010;53.986;12.106;2023-04-24T06:51:02;2.57;;;1.50;;
15818;SDS011;8010;53.986;12.106;2023-04-24T06:53:28;1.77;;;1.30;;
15818;SDS011;8010;53.986;12.106;2023-04-24T06:55:53;1.37;;;1.27;;
15818;SDS011;8010;53.986;12.106;2023-04-24T06:58:19;1.33;;;1.17;;
15818;SDS011;8010;53.986;12.106;2023-04-24T07:00:45;1.63;;;1.47;;
15818;SDS011;8010;53.986;12.106;2023-04-24T07:03:11;1.80;;;1.50;;
15818;SDS011;8010;53.986;12.106;2023-04-24T07:05:36;2.63;;;1.53;;
15818;SDS011;8010;53.986;12.106;2023-04-24T07:08:03;1.40;;;1.30;;
15818;SDS011;8010;53.986;12.106;2023-04-24T07:10:28;1.97;;;1.30;;
15818;SDS011;8010;53.986;12.106;2023-04-24T07:12:55;1.50;;;1.40;;
15818;SDS011;8010;53.986;12.106;2023-04-24T07:15:23;1.83;;;1.30;;
15818;SDS011;8010;53.986;12.106;2023-04-24T07:17:49;1.30;;;1.20;;
15818;SDS011;8010;53.986;12.106;2023-04-24T07:20:15;1.10;;;0.90;;
15818;SDS011;8010;53.986;12.106;2023-04-24T07:22:41;1.47;;;1.27;;
15818;SDS011;8010;53.986;12.106;2023-04-24T07:25:06;2.30;;;1.30;;
15818;SDS011;8010;53.986;12.106;2023-04-24T07:27:33;1.93;;;1.30;;
15818;SDS011;8010;53.986;12.106;2023-04-24T07:29:59;1.93;;;1.30;;
15818;SDS011;8010;53.986;12.106;2023-04-24T07:32:25;1.70;;;1.60;;
15818;SDS011;8010;53.986;12.106;2023-04-24T07:34:51;2.77;;;1.60;;
15818;SDS011;8010;53.986;12.106;2023-04-24T07:37:16;1.70;;;1.40;;
15818;SDS011;8010;53.986;12.106;2023-04-24T07:39:42;2.47;;;1.10;;
15818;SDS011;8010;53.986;12.106;2023-04-24T07:42:08;1.17;;;1.03;;
15818;SDS011;8010;53.986;12.106;2023-04-24T07:44:33;1.27;;;1.10;;
15818;SDS011;8010;53.986;12.106;2023-04-24T07:46:59;1.00;;;0.90;;
15818;SDS011;8010;53.986;12.106;2023-04-24T07:49:24;1.20;;;1.00;;
15818;SDS011;8010;53.986;12.106;2023-04-24T07:51:50;1.30;;;1.20;;
15818;SDS011;8010;53.986;12.106;2023-04-24T07:54:16;1.10;;;1.00;;
15818;SDS011;8010;53.986;12.106;2023-04-24T07:56:41;1.67;;;1.10;;
15818;SDS011;8010;53.986;12.106;2023-04-24T07:59:08;1.50;;;1.30;;
15818;SDS011;8010;53.986;12.106;2023-04-24T08:01:35;1.10;;;1.00;;
15818;SDS011;8010;53.986;12.106;2023-04-24T08:04:01;1.17;;;1.07;;
15818;SDS011;8010;53.986;12.106;2023-04-24T08:06:26;1.00;;;0.90;;
15818;SDS011;8010;53.986;12.106;2023-04-24T08:08:56;2.30;;;0.97;;
15818;SDS011;8010;53.986;12.106;2023-04-24T08:11:22;2.00;;;1.00;;
15818;SDS011;8010;53.986;12.106;2023-04-24T08:13:48;1.17;;;0.80;;
15818;SDS011;8010;53.986;12.106;2023-04-24T08:16:14;1.20;;;1.00;;
15818;SDS011;8010;53.986;12.106;2023-04-24T08:18:40;1.03;;;0.90;;
15818;SDS011;8010;53.986;12.106;2023-04-24T08:21:05;1.20;;;1.00;;
15818;SDS011;8010;53.986;12.106;2023-04-24T08:23:31;1.10;;;0.90;;
15818;SDS011;8010;53.986;12.106;2023-04-24T08:25:56;0.97;;;0.90;;
15818;SDS011;8010;53.986;12.106;2023-04-24T08:28:22;1.00;;;0.90;;
15818;SDS011;8010;53.986;12.106;2023-04-24T08:30:48;2.37;;;1.30;;
15818;SDS011;8010;53.986;12.106;2023-04-24T08:33:19;1.03;;;0.90;;
15818;SDS011;8010;53.986;12.106;2023-04-24T08:35:48;1.17;;;1.00;;
15818;SDS011;8010;53.986;12.106;2023-04-24T08:38:14;1.00;;;0.90;;
15818;SDS011;8010;53.986;12.106;2023-04-24T08:40:40;1.20;;;1.10;;
15818;SDS011;8010;53.986;12.106;2023-04-24T08:43:06;1.00;;;0.90;;
15818;SDS011;8010;53.986;12.106;2023-04-24T08:45:32;1.03;;;0.90;;
15818;SDS011;8010;53.986;12.106;2023-04-24T08:47:58;2.00;;;1.00;;
15818;SDS011;8010;53.986;12.106;2023-04-24T08:50:24;2.10;;;1.00;;
15818;SDS011;8010;53.986;12.106;2023-04-24T08:52:51;1.20;;;1.00;;
15818;SDS011;8010;53.986;12.106;2023-04-24T08:55:20;1.10;;;0.90;;
15818;SDS011;8010;53.986;12.106;2023-04-24T08:57:50;1.30;;;1.00;;
15818;SDS011;8010;53.986;12.106;2023-04-24T09:00:17;1.50;;;0.93;;
15818;SDS011;8010;53.986;12.106;2023-04-24T09:02:44;1.13;;;0.90;;
15818;SDS011;8010;53.986;12.106;2023-04-24T09:05:12;1.03;;;0.90;;
15818;SDS011;8010;53.986;12.106;2023-04-24T09:07:38;1.10;;;0.80;;
15818;SDS011;8010;53.986;12.106;2023-04-24T09:10:06;0.80;;;0.70;;
15818;SDS011;8010;53.986;12.106;2023-04-24T09:12:33;1.77;;;1.10;;
15818;SDS011;8010;53.986;12.106;2023-04-24T09:15:00;1.27;;;1.10;;
15818;SDS011;8010;53.986;12.106;2023-04-24T09:17:27;0.70;;;0.70;;
15818;SDS011;8010;53.986;12.106;2023-04-24T09:19:53;1.33;;;0.93;;
15818;SDS011;8010;53.986;12.106;2023-04-24T09:22:19;1.53;;;0.97;;
15818;SDS011;8010;53.986;12.106;2023-04-24T09:24:45;0.80;;;0.80;;
15818;SDS011;8010;53.986;12.106;2023-04-24T09:27:12;1.00;;;0.90;;
15818;SDS011;8010;53.986;12.106;2023-04-24T09:29:38;0.80;;;0.80;;
15818;SDS011;8010;53.986;12.106;2023-04-24T09:32:19;1.57;;;1.07;;
15818;SDS011;8010;53.986;12.106;2023-04-24T09:34:47;1.17;;;1.07;;
15818;SDS011;8010;53.986;12.106;2023-04-24T09:37:25;1.73;;;0.90;;
15818;SDS011;8010;53.986;12.106;2023-04-24T09:40:09;0.60;;;0.60;;
15818;SDS011;8010;53.986;12.106;2023-04-24T09:42:38;0.70;;;0.70;;
15818;SDS011;8010;53.986;12.106;2023-04-24T09:45:05;1.10;;;0.90;;
15818;SDS011;8010;53.986;12.106;2023-04-24T09:47:37;1.77;;;0.90;;
15818;SDS011;8010;53.986;12.106;2023-04-24T09:50:10;1.00;;;0.90;;
15818;SDS011;8010;53.986;12.106;2023-04-24T09:52:39;2.50;;;0.90;;
15818;SDS011;8010;53.986;12.106;2023-04-24T09:55:19;0.97;;;0.90;;
15818;SDS011;8010;53.986;12.106;2023-04-24T09:57:52;1.00;;;0.80;;
15818;SDS011;8010;53.986;12.106;2023-04-24T10:00:25;1.10;;;0.90;;
15818;SDS011;8010;53.986;12.106;2023-04-24T10:02:59;1.27;;;0.90;;
15818;SDS011;8010;53.986;12.106;2023-04-24T10:05:32;1.40;;;1.07;;
15818;SDS011;8010;53.986;12.106;2023-04-24T10:08:00;1.23;;;1.00;;
15818;SDS011;8010;53.986;12.106;2023-04-24T10:10:28;1.00;;;0.90;;
15818;SDS011;8010;53.986;12.106;2023-04-24T10:12:54;1.20;;;0.90;;
15818;SDS011;8010;53.986;12.106;2023-04-24T10:15:20;1.70;;;0.90;;
15818;SDS011;8010;53.986;12.106;2023-04-24T10:17:50;1.07;;;0.87;;
15818;SDS011;8010;53.986;12.106;2023-04-24T10:20:19;0.73;;;0.73;;
15818;SDS011;8010;53.986;12.106;2023-04-24T10:22:50;1.17;;;0.80;;
15818;SDS011;8010;53.986;12.106;2023-04-24T10:25:18;1.10;;;0.90;;
15818;SDS011;8010;53.986;12.106;2023-04-24T10:27:48;1.13;;;1.00;;
15818;SDS011;8010;53.986;12.106;2023-04-24T10:30:15;1.00;;;0.73;;
15818;SDS011;8010;53.986;12.106;2023-04-24T10:32:42;0.97;;;0.80;;
15818;SDS011;8010;53.986;12.106;2023-04-24T10:35:08;0.97;;;0.90;;
15818;SDS011;8010;53.986;12.106;2023-04-24T10:37:38;1.67;;;0.87;;
15818;SDS011;8010;53.986;12.106;2023-04-24T10:40:09;1.87;;;0.80;;
15818;SDS011;8010;53.986;12.106;2023-04-24T10:42:39;1.67;;;1.07;;
15818;SDS011;8010;53.986;12.106;2023-04-24T10:45:06;0.97;;;0.87;;
15818;SDS011;8010;53.986;12.106;2023-04-24T10:47:40;0.90;;;0.73;;
15818;SDS011;8010;53.986;12.106;2023-04-24T10:50:10;0.90;;;0.90;;
15818;SDS011;8010;53.986;12.106;2023-04-24T10:52:48;1.07;;;0.90;;
15818;SDS011;8010;53.986;12.106;2023-04-24T10:58:08;1.47;;;0.90;;
15818;SDS011;8010;53.986;12.106;2023-04-24T11:00:36;2.30;;;0.90;;
15818;SDS011;8010;53.986;12.106;2023-04-24T11:03:04;1.07;;;0.97;;
15818;SDS011;8010;53.986;12.106;2023-04-24T11:05:50;1.30;;;1.20;;
15818;SDS011;8010;53.986;12.106;2023-04-24T11:08:24;0.80;;;0.70;;
15818;SDS011;8010;53.986;12.106;2023-04-24T11:10:56;0.90;;;0.80;;
15818;SDS011;8010;53.986;12.106;2023-04-24T11:13:29;0.70;;;0.63;;
15818;SDS011;8010;53.986;12.106;2023-04-24T11:16:32;0.90;;;0.73;;
15818;SDS011;8010;53.986;12.106;2023-04-24T11:21:45;1.13;;;0.60;;
15818;SDS011;8010;53.986;12.106;2023-04-24T11:26:51;0.80;;;0.80;;
15818;SDS011;8010;53.986;12.106;2023-04-24T11:29:19;1.37;;;0.90;;
15818;SDS011;8010;53.986;12.106;2023-04-24T11:31:45;1.40;;;0.90;;
15818;SDS011;8010;53.986;12.106;2023-04-24T11:34:16;1.00;;;0.87;;
15818;SDS011;8010;53.986;12.106;2023-04-24T11:36:43;0.67;;;0.63;;
15818;SDS011;8010;53.986;12.106;2023-04-24T11:39:10;1.13;;;0.80;;
15818;SDS011;8010;53.986;12.106;2023-04-24T11:41:36;1.10;;;1.00;;
15818;SDS011;8010;53.986;12.106;2023-04-24T11:44:02;1.00;;;0.90;;
15818;SDS011;8010;53.986;12.106;2023-04-24T11:46:30;0.87;;;0.70;;
15818;SDS011;8010;53.986;12.106;2023-04-24T11:48:57;1.50;;;1.00;;
15818;SDS011;8010;53.986;12.106;2023-04-24T11:51:23;0.60;;;0.60;;
15818;SDS011;8010;53.986;12.106;2023-04-24T11:53:53;1.67;;;1.10;;
15818;SDS011;8010;53.986;12.106;2023-04-24T11:56:23;0.77;;;0.60;;
15818;SDS011;8010;53.986;12.106;2023-04-24T11:58:51;1.13;;;0.80;;
15818;SDS011;8010;53.986;12.106;2023-04-24T12:01:17;0.60;;;0.50;;
15818;SDS011;8010;53.986;12.106;2023-04-24T12:03:47;1.00;;;0.60;;
15818;SDS011;8010;53.986;12.106;2023-04-24T12:06:13;1.00;;;0.90;;
15818;SDS011;8010;53.986;12.106;2023-04-24T12:08:38;0.80;;;0.80;;
15818;SDS011;8010;53.986;12.106;2023-04-24T12:11:05;0.73;;;0.70;;
15818;SDS011;8010;53.986;12.106;2023-04-24T12:13:34;0.70;;;0.67;;
15818;SDS011;8010;53.986;12.106;2023-04-24T12:16:04;0.63;;;0.63;;
15818;SDS011;8010;53.986;12.106;2023-04-24T12:18:30;0.60;;;0.60;;
15818;SDS011;8010;53.986;12.106;2023-04-24T12:21:14;0.83;;;0.70;;
15818;SDS011;8010;53.986;12.106;2023-04-24T12:23:43;0.83;;;0.70;;
15818;SDS011;8010;53.986;12.106;2023-04-24T12:26:10;1.10;;;0.80;;
15818;SDS011;8010;53.986;12.106;2023-04-24T12:28:37;1.30;;;0.90;;
15818;SDS011;8010;53.986;12.106;2023-04-24T12:31:03;1.07;;;0.87;;
15818;SDS011;8010;53.986;12.106;2023-04-24T12:33:32;1.00;;;0.90;;
15818;SDS011;8010;53.986;12.106;2023-04-24T12:35:58;0.93;;;0.83;;
15818;SDS011;8010;53.986;12.106;2023-04-24T12:38:28;1.10;;;0.70;;
15818;SDS011;8010;53.986;12.106;2023-04-24T12:41:06;1.80;;;1.00;;
15818;SDS011;8010;53.986;12.106;2023-04-24T12:43:33;1.23;;;1.00;;
15818;SDS011;8010;53.986;12.106;2023-04-24T12:45:59;2.23;;;1.20;;
15818;SDS011;8010;53.986;12.106;2023-04-24T12:48:25;1.67;;;1.00;;
15818;SDS011;8010;53.986;12.106;2023-04-24T12:50:51;1.43;;;1.00;;
15818;SDS011;8010;53.986;12.106;2023-04-24T12:53:17;0.70;;;0.70;;
15818;SDS011;8010;53.986;12.106;2023-04-24T12:55:43;1.13;;;1.03;;
15818;SDS011;8010;53.986;12.106;2023-04-24T12:58:09;1.97;;;1.10;;
15818;SDS011;8010;53.986;12.106;2023-04-24T13:00:35;1.17;;;0.70;;
15818;SDS011;8010;53.986;12.106;2023-04-24T13:03:01;0.93;;;0.70;;
15818;SDS011;8010;53.986;12.106;2023-04-24T13:05:27;0.50;;;0.40;;
15818;SDS011;8010;53.986;12.106;2023-04-24T13:07:52;0.90;;;0.70;;
15818;SDS011;8010;53.986;12.106;2023-04-24T13:10:18;1.53;;;0.80;;
15818;SDS011;8010;53.986;12.106;2023-04-24T13:12:44;1.87;;;0.70;;
15818;SDS011;8010;53.986;12.106;2023-04-24T13:15:11;0.77;;;0.70;;
15818;SDS011;8010;53.986;12.106;2023-04-24T13:17:37;0.93;;;0.77;;
15818;SDS011;8010;53.986;12.106;2023-04-24T13:20:02;1.00;;;0.80;;
15818;SDS011;8010;53.986;12.106;2023-04-24T13:22:28;1.73;;;0.60;;
15818;SDS011;8010;53.986;12.106;2023-04-24T13:24:54;0.80;;;0.60;;
15818;SDS011;8010;53.986;12.106;2023-04-24T13:27:21;0.93;;;0.80;;
15818;SDS011;8010;53.986;12.106;2023-04-24T13:29:46;1.20;;;0.77;;
15818;SDS011;8010;53.986;12.106;2023-04-24T13:32:12;1.73;;;0.83;;
15818;SDS011;8010;53.986;12.106;2023-04-24T13:34:37;1.20;;;1.00;;
15818;SDS011;8010;53.986;12.106;2023-04-24T13:37:03;1.33;;;1.07;;
15818;SDS011;8010;53.986;12.106;2023-04-24T13:39:29;0.93;;;0.87;;
15818;SDS011;8010;53.986;12.106;2023-04-24T13:41:55;1.50;;;1.20;;
15818;SDS011;8010;53.986;12.106;2023-04-24T13:44:22;1.50;;;1.20;;
15818;SDS011;8010;53.986;12.106;2023-04-24T13:46:49;2.80;;;1.30;;
15818;SDS011;8010;53.986;12.106;2023-04-24T13:49:19;1.77;;;1.50;;
15818;SDS011;8010;53.986;12.106;2023-04-24T13:51:45;1.77;;;1.67;;
15818;SDS011;8010;53.986;12.106;2023-04-24T13:54:11;2.20;;;1.83;;
15818;SDS011;8010;53.986;12.106;2023-04-24T13:56:38;2.90;;;2.60;;
15818;SDS011;8010;53.986;12.106;2023-04-24T13:59:07;3.23;;;2.30;;
15818;SDS011;8010;53.986;12.106;2023-04-24T14:01:33;2.00;;;1.80;;
15818;SDS011;8010;53.986;12.106;2023-04-24T14:03:59;2.77;;;2.40;;
15818;SDS011;8010;53.986;12.106;2023-04-24T14:06:24;4.50;;;2.30;;
15818;SDS011;8010;53.986;12.106;2023-04-24T14:08:50;2.50;;;2.30;;
15818;SDS011;8010;53.986;12.106;2023-04-24T14:11:17;3.30;;;2.40;;
15818;SDS011;8010;53.986;12.106;2023-04-24T14:13:43;2.73;;;2.20;;
15818;SDS011;8010;53.986;12.106;2023-04-24T14:16:10;3.00;;;2.30;;
15818;SDS011;8010;53.986;12.106;2023-04-24T14:18:36;3.03;;;2.73;;
15818;SDS011;8010;53.986;12.106;2023-04-24T14:21:02;2.73;;;2.50;;
15818;SDS011;8010;53.986;12.106;2023-04-24T14:23:28;3.03;;;2.73;;
15818;SDS011;8010;53.986;12.106;2023-04-24T14:25:54;2.60;;;2.40;;
15818;SDS011;8010;53.986;12.106;2023-04-24T14:28:20;3.00;;;2.60;;
15818;SDS011;8010;53.986;12.106;2023-04-24T14:30:46;4.20;;;2.70;;
15818;SDS011;8010;53.986;12.106;2023-04-24T14:33:12;2.90;;;2.50;;
15818;SDS011;8010;53.986;12.106;2023-04-24T14:35:38;2.80;;;2.30;;
15818;SDS011;8010;53.986;12.106;2023-04-24T14:38:05;2.43;;;2.23;;
15818;SDS011;8010;53.986;12.106;2023-04-24T14:40:31;3.03;;;2.40;;
15818;SDS011;8010;53.986;12.106;2023-04-24T14:42:57;3.40;;;2.23;;
15818;SDS011;8010;53.986;12.106;2023-04-24T14:45:23;2.97;;;2.60;;
15818;SDS011;8010;53.986;12.106;2023-04-24T14:47:52;3.20;;;2.80;;
15818;SDS011;8010;53.986;12.106;2023-04-24T14:50:18;3.63;;;3.10;;
15818;SDS011;8010;53.986;12.106;2023-04-24T14:52:44;3.10;;;2.67;;
15818;SDS011;8010;53.986;12.106;2023-04-24T14:55:09;2.67;;;2.47;;